createdAt,value
2022-09-16T00:01:37.574Z,7.60
2022-09-16T00:04:04.079Z,7.13
2022-09-16T00:06:31.078Z,3.97
2022-09-16T00:09:01.099Z,7.80
2022-09-16T00:11:27.940Z,7.53
2022-09-16T00:13:54.448Z,5.07
2022-09-16T00:16:26.113Z,7.40
2022-09-16T00:19:00.979Z,6.27
2022-09-16T00:21:29.048Z,5.80
2022-09-16T00:23:56.463Z,3.37
2022-09-16T00:26:23.408Z,3.27
2022-09-16T00:28:50.776Z,5.77
2022-09-16T00:31:17.779Z,10.33
2022-09-16T00:33:44.289Z,5.23
2022-09-16T00:36:16.617Z,7.33
2022-09-16T00:38:43.503Z,2.83
2022-09-16T00:41:15.951Z,7.60
2022-09-16T00:43:50.227Z,7.60
2022-09-16T00:46:17.828Z,5.50
2022-09-16T00:48:44.644Z,7.83
2022-09-16T00:51:12.790Z,7.13
2022-09-16T00:53:43.377Z,9.27
2022-09-16T00:56:13.092Z,6.17
2022-09-16T00:58:43.322Z,7.77
2022-09-16T01:01:09.896Z,5.27
2022-09-16T01:03:43.166Z,6.67
2022-09-16T01:06:10.649Z,6.47
2022-09-16T01:08:37.406Z,6.30
2022-09-16T01:11:03.826Z,9.33
2022-09-16T01:13:30.247Z,8.80
2022-09-16T01:16:06.025Z,7.47
2022-09-16T01:18:57.838Z,14.33
2022-09-16T01:21:56.835Z,5.40
2022-09-16T01:24:38.334Z,6.90
2022-09-16T01:27:10.636Z,3.37
2022-09-16T01:29:58.515Z,3.70
2022-09-16T01:32:33.626Z,6.03
2022-09-16T01:35:13.043Z,7.60
2022-09-16T01:38:20.182Z,9.30
2022-09-16T01:41:16.133Z,7.70
2022-09-16T01:43:54.785Z,5.47
2022-09-16T01:46:26.343Z,5.97
2022-09-16T01:49:01.433Z,4.87
2022-09-16T01:51:53.550Z,8.73
2022-09-16T01:54:27.052Z,6.87
2022-09-16T01:56:56.376Z,7.40
2022-09-16T01:59:32.706Z,9.87
2022-09-16T02:02:05.773Z,5.63
2022-09-16T02:04:44.396Z,7.23
2022-09-16T02:07:12.022Z,4.87
2022-09-16T02:09:41.501Z,5.27
2022-09-16T02:12:13.066Z,6.87
2022-09-16T02:14:42.930Z,6.67
2022-09-16T02:17:11.806Z,5.37
2022-09-16T02:19:58.099Z,8.93
2022-09-16T02:22:30.315Z,8.87
2022-09-16T02:24:59.177Z,3.00
2022-09-16T02:27:27.404Z,4.63
2022-09-16T02:29:56.548Z,3.60
2022-09-16T02:32:24.490Z,9.30
2022-09-16T02:34:51.940Z,3.87
2022-09-16T02:37:23.955Z,4.73
2022-09-16T02:39:55.122Z,3.87
2022-09-16T02:42:21.630Z,11.20
2022-09-16T02:44:48.077Z,5.10
2022-09-16T02:47:21.320Z,7.73
2022-09-16T02:49:51.417Z,1.47
2022-09-16T02:52:24.030Z,8.03
2022-09-16T02:55:01.424Z,4.03
2022-09-16T02:57:28.639Z,5.77
2022-09-16T02:59:55.234Z,8.43
2022-09-16T03:02:21.983Z,2.43
2022-09-16T03:04:48.605Z,5.10
2022-09-16T03:07:15.715Z,6.50
2022-09-16T03:09:44.325Z,6.50
2022-09-16T03:12:49.605Z,4.97
2022-09-16T03:15:34.530Z,4.10
2022-09-16T03:18:10.876Z,4.83
2022-09-16T03:20:55.269Z,5.00
2022-09-16T03:23:28.728Z,5.43
2022-09-16T03:26:12.031Z,7.40
2022-09-16T03:28:58.216Z,5.73
2022-09-16T03:31:30.393Z,4.43
2022-09-16T03:34:10.811Z,6.40
2022-09-16T03:36:42.408Z,8.37
2022-09-16T03:39:10.890Z,5.40
2022-09-16T03:41:38.198Z,8.80
2022-09-16T03:44:04.691Z,7.03
2022-09-16T03:46:31.771Z,5.87
2022-09-16T03:48:58.764Z,3.93
2022-09-16T03:51:25.608Z,6.63
2022-09-16T03:53:53.076Z,8.43
2022-09-16T03:56:20.133Z,6.17
2022-09-16T03:58:48.229Z,5.93
2022-09-16T04:01:15.153Z,4.47
2022-09-16T04:03:42.007Z,6.03
2022-09-16T04:06:09.514Z,5.57
2022-09-16T04:08:36.101Z,10.17
2022-09-16T04:11:08.026Z,6.03
2022-09-16T04:13:35.754Z,9.17
2022-09-16T04:16:04.049Z,5.67
2022-09-16T04:18:31.727Z,6.87
2022-09-16T04:20:59.742Z,13.47
2022-09-16T04:23:26.969Z,8.77
2022-09-16T04:25:58.234Z,5.33
2022-09-16T04:28:24.937Z,5.37
2022-09-16T04:30:51.976Z,7.73
2022-09-16T04:33:18.865Z,6.50
2022-09-16T04:35:45.392Z,6.53
2022-09-16T04:38:11.858Z,3.87
2022-09-16T04:40:40.154Z,3.33
2022-09-16T04:43:06.729Z,5.10
2022-09-16T04:45:33.336Z,4.97
2022-09-16T04:47:59.777Z,4.40
2022-09-16T04:50:26.887Z,3.97
2022-09-16T04:52:53.335Z,3.30
2022-09-16T04:55:22.968Z,4.57
2022-09-16T04:57:50.256Z,3.93
2022-09-16T05:00:17.045Z,6.17
2022-09-16T05:02:48.937Z,6.63
2022-09-16T05:05:17.204Z,5.43
2022-09-16T05:07:43.683Z,5.33
2022-09-16T05:10:12.256Z,3.63
2022-09-16T05:12:38.827Z,3.93
2022-09-16T05:15:07.818Z,9.43
2022-09-16T05:17:50.330Z,5.40
2022-09-16T05:20:17.863Z,4.10
2022-09-16T05:22:44.316Z,8.87
2022-09-16T05:25:10.882Z,4.37
2022-09-16T05:27:37.315Z,3.63
2022-09-16T05:30:04.222Z,5.17
2022-09-16T05:32:31.038Z,4.47
2022-09-16T05:34:57.506Z,6.57
2022-09-16T05:37:23.959Z,5.47
2022-09-16T05:39:50.487Z,6.03
2022-09-16T05:42:16.931Z,9.43
2022-09-16T05:44:43.478Z,4.60
2022-09-16T05:47:09.853Z,8.00
2022-09-16T05:49:37.094Z,3.10
2022-09-16T05:52:03.566Z,6.00
2022-09-16T05:54:31.613Z,4.40
2022-09-16T05:56:58.023Z,6.37
2022-09-16T05:59:24.542Z,7.43
2022-09-16T06:01:51.154Z,6.77
2022-09-16T06:04:17.746Z,9.67
2022-09-16T06:06:45.854Z,6.67
2022-09-16T06:09:15.036Z,5.20
2022-09-16T06:11:43.939Z,6.33
2022-09-16T06:14:11.404Z,6.80
2022-09-16T06:16:37.926Z,10.40
2022-09-16T06:19:06.720Z,3.57
2022-09-16T06:21:33.169Z,10.10
2022-09-16T06:23:59.930Z,9.37
2022-09-16T06:26:26.956Z,10.83
2022-09-16T06:28:53.741Z,7.53
2022-09-16T06:31:22.060Z,5.87
2022-09-16T06:33:50.357Z,7.70
2022-09-16T06:36:19.805Z,5.33
2022-09-16T06:38:46.798Z,9.53
2022-09-16T06:41:14.404Z,8.43
2022-09-16T06:43:41.261Z,8.97
2022-09-16T06:46:16.931Z,7.37
2022-09-16T06:48:45.366Z,6.93
2022-09-16T06:51:20.344Z,7.63
2022-09-16T06:53:46.992Z,8.57
2022-09-16T06:56:15.504Z,10.13
2022-09-16T06:58:45.341Z,7.93
2022-09-16T07:01:17.341Z,7.00
2022-09-16T07:03:49.160Z,8.73
2022-09-16T07:06:17.037Z,6.53
2022-09-16T07:08:44.139Z,7.20
2022-09-16T07:11:10.649Z,6.93
2022-09-16T07:13:37.215Z,6.03
2022-09-16T07:16:13.439Z,7.63
2022-09-16T07:18:40.467Z,5.53
2022-09-16T07:21:09.797Z,10.90
2022-09-16T07:23:37.364Z,7.43
2022-09-16T07:26:06.568Z,7.47
2022-09-16T07:28:33.731Z,6.67
2022-09-16T07:31:04.209Z,3.63
2022-09-16T07:33:33.170Z,10.63
2022-09-16T07:36:00.257Z,11.17
2022-09-16T07:38:27.390Z,8.53
2022-09-16T07:40:53.806Z,6.17
2022-09-16T07:43:20.276Z,9.50
2022-09-16T07:45:46.988Z,6.67
2022-09-16T07:48:13.405Z,4.63
2022-09-16T07:50:39.783Z,7.47
2022-09-16T07:53:06.612Z,6.80
2022-09-16T07:55:35.263Z,7.07
2022-09-16T07:58:01.734Z,8.10
2022-09-16T08:00:28.109Z,8.93
2022-09-16T08:02:57.251Z,6.23
2022-09-16T08:05:23.913Z,5.10
2022-09-16T08:07:50.445Z,4.97
2022-09-16T08:10:16.975Z,4.30
2022-09-16T08:12:46.994Z,6.80
2022-09-16T08:15:13.615Z,5.80
2022-09-16T08:17:40.252Z,8.37
2022-09-16T08:20:07.166Z,5.93
2022-09-16T08:22:35.640Z,9.13
2022-09-16T08:25:02.161Z,7.13
2022-09-16T08:27:28.592Z,6.83
2022-09-16T08:29:55.200Z,7.67
2022-09-16T08:32:21.580Z,5.03
2022-09-16T08:34:49.109Z,6.63
2022-09-16T08:37:15.516Z,6.83
2022-09-16T08:39:42.036Z,6.70
2022-09-16T08:42:28.677Z,9.33
2022-09-16T08:45:01.462Z,6.20
2022-09-16T08:47:35.552Z,10.60
2022-09-16T08:50:05.704Z,7.27
2022-09-16T08:52:39.477Z,12.33
2022-09-16T08:55:20.847Z,10.50
2022-09-16T08:57:56.672Z,8.73
2022-09-16T09:00:23.074Z,6.03
2022-09-16T09:02:59.165Z,7.73
2022-09-16T09:05:31.751Z,7.43
2022-09-16T09:08:07.299Z,7.77
2022-09-16T09:10:51.929Z,10.00
2022-09-16T09:13:40.264Z,10.60
2022-09-16T09:16:27.050Z,8.93
2022-09-16T09:19:00.426Z,8.27
2022-09-16T09:21:35.327Z,6.87
2022-09-16T09:24:07.855Z,12.10
2022-09-16T09:26:50.076Z,11.03
2022-09-16T09:29:36.774Z,8.97
2022-09-16T09:32:16.109Z,12.20
2022-09-16T09:35:02.872Z,10.00
2022-09-16T09:37:54.128Z,10.33
2022-09-16T09:40:48.399Z,12.30
2022-09-16T09:43:23.734Z,13.40
2022-09-16T09:45:58.467Z,5.93
2022-09-16T09:48:46.954Z,6.10
2022-09-16T09:51:22.868Z,16.03
2022-09-16T09:53:55.276Z,10.73
2022-09-16T09:56:31.642Z,11.57
2022-09-16T09:59:25.903Z,17.70
2022-09-16T10:01:56.777Z,9.23
2022-09-16T10:04:23.305Z,8.33
2022-09-16T10:06:51.750Z,11.70
2022-09-16T10:09:19.085Z,6.53
2022-09-16T10:11:55.542Z,6.27
2022-09-16T10:14:25.335Z,17.67
2022-09-16T10:16:52.842Z,6.00
2022-09-16T10:19:22.757Z,9.97
2022-09-16T10:22:07.899Z,12.90
2022-09-16T10:24:37.283Z,14.50
2022-09-16T10:27:27.016Z,9.17
2022-09-16T10:30:25.134Z,9.27
2022-09-16T10:33:05.882Z,11.23
2022-09-16T10:35:34.712Z,11.33
2022-09-16T10:38:06.845Z,9.27
2022-09-16T10:40:34.014Z,9.10
2022-09-16T10:43:07.554Z,11.00
2022-09-16T10:45:36.018Z,6.17
2022-09-16T10:48:12.647Z,5.53
2022-09-16T10:50:39.097Z,8.07
2022-09-16T10:53:21.874Z,7.53
2022-09-16T10:55:58.073Z,8.90
2022-09-16T10:58:24.607Z,10.17
2022-09-16T11:01:21.428Z,3.57
2022-09-16T11:04:00.243Z,9.23
2022-09-16T11:06:38.588Z,4.03
2022-09-16T11:09:19.784Z,3.00
2022-09-16T11:12:07.612Z,6.10
2022-09-16T11:14:50.201Z,6.00
2022-09-16T11:17:32.536Z,4.97
2022-09-16T11:20:57.744Z,7.00
2022-09-16T11:23:26.979Z,4.70
2022-09-16T11:26:01.200Z,4.30
2022-09-16T11:28:33.732Z,5.17
2022-09-16T11:31:13.005Z,3.50
2022-09-16T11:33:42.078Z,9.33
2022-09-16T11:36:27.166Z,6.23
2022-09-16T11:39:22.293Z,4.77
2022-09-16T11:42:10.863Z,10.80
2022-09-16T11:44:40.331Z,8.40
2022-09-16T11:47:38.489Z,8.17
2022-09-16T11:50:32.472Z,4.40
2022-09-16T11:53:18.992Z,8.33
2022-09-16T11:55:52.146Z,5.47
2022-09-16T11:58:36.659Z,7.43
2022-09-16T12:01:10.546Z,4.87
2022-09-16T12:03:54.878Z,6.60
2022-09-16T12:06:24.354Z,6.07
2022-09-16T12:09:09.093Z,9.47
2022-09-16T12:11:41.055Z,8.13
2022-09-16T12:14:15.034Z,11.63
2022-09-16T12:16:47.572Z,8.73
2022-09-16T12:19:22.126Z,4.90
2022-09-16T12:21:57.715Z,7.43
2022-09-16T12:24:33.185Z,7.60
2022-09-16T12:27:12.584Z,5.93
2022-09-16T12:29:48.704Z,8.40
2022-09-16T12:32:20.181Z,13.47
2022-09-16T12:34:51.093Z,11.80
2022-09-16T12:37:33.720Z,10.03
2022-09-16T12:40:01.349Z,9.57
2022-09-16T12:42:33.875Z,7.53
2022-09-16T12:45:20.878Z,7.40
2022-09-16T12:48:17.645Z,5.93
2022-09-16T12:50:56.491Z,8.23
2022-09-16T12:53:41.670Z,7.20
2022-09-16T12:56:28.741Z,6.23
2022-09-16T12:59:15.551Z,9.30
2022-09-16T13:01:48.527Z,10.30
2022-09-16T13:04:24.422Z,10.00
2022-09-16T13:06:52.766Z,5.83
2022-09-16T13:09:33.381Z,11.20
2022-09-16T13:12:36.722Z,9.97
2022-09-16T13:15:05.135Z,10.00
2022-09-16T13:17:34.129Z,10.93
2022-09-16T13:20:16.081Z,9.37
2022-09-16T13:23:03.658Z,11.43
2022-09-16T13:25:34.882Z,13.53
2022-09-16T13:28:03.803Z,15.80
2022-09-16T13:30:39.499Z,11.43
2022-09-16T13:33:08.866Z,15.60
2022-09-16T13:35:37.882Z,9.03
2022-09-16T13:38:16.552Z,11.93
2022-09-16T13:41:00.621Z,12.90
2022-09-16T13:43:42.243Z,10.50
2022-09-16T13:46:11.680Z,13.30
2022-09-16T13:48:42.762Z,17.40
2022-09-16T13:51:14.732Z,21.33
2022-09-16T13:53:52.939Z,14.60
2022-09-16T13:56:25.605Z,15.07
2022-09-16T13:59:02.167Z,15.87
2022-09-16T14:01:58.690Z,19.70
2022-09-16T14:04:47.095Z,12.83
2022-09-16T14:07:32.134Z,19.07
2022-09-16T14:09:58.526Z,17.33
2022-09-16T14:12:39.133Z,14.17
2022-09-16T14:15:06.489Z,19.93
2022-09-16T14:17:39.387Z,12.70
2022-09-16T14:20:06.650Z,13.07
2022-09-16T14:22:34.118Z,10.97
2022-09-16T14:25:06.388Z,11.60
2022-09-16T14:27:36.707Z,11.13
2022-09-16T14:30:21.525Z,11.90
2022-09-16T14:32:48.807Z,10.43
2022-09-16T14:35:26.890Z,11.60
2022-09-16T14:38:00.231Z,9.53
2022-09-16T14:40:28.189Z,8.33
2022-09-16T14:43:03.260Z,12.03
2022-09-16T14:45:30.853Z,6.50
2022-09-16T14:47:59.473Z,13.13
2022-09-16T14:50:31.894Z,6.93
2022-09-16T14:53:04.239Z,11.50
2022-09-16T14:55:37.605Z,8.17
2022-09-16T14:58:05.018Z,8.20
2022-09-16T15:00:38.454Z,9.00
2022-09-16T15:03:16.123Z,6.90
2022-09-16T15:05:45.771Z,7.60
2022-09-16T15:08:49.608Z,9.23
2022-09-16T15:12:46.718Z,9.37
2022-09-16T15:14:07.512Z,9.03
2022-09-16T15:16:40.413Z,5.60
2022-09-16T15:19:06.918Z,7.20
2022-09-16T15:21:36.746Z,5.40
2022-09-16T15:24:05.122Z,9.43
2022-09-16T15:26:38.703Z,8.53
2022-09-16T15:29:07.701Z,5.93
2022-09-16T15:31:36.892Z,13.60
2022-09-16T15:34:21.922Z,12.03
2022-09-16T15:36:50.884Z,6.07
2022-09-16T15:39:29.445Z,9.57
2022-09-16T15:42:24.016Z,9.60
2022-09-16T15:44:53.505Z,6.10
2022-09-16T15:47:29.854Z,6.47
2022-09-16T15:50:12.646Z,5.83
2022-09-16T15:52:48.056Z,6.63
2022-09-16T15:55:27.146Z,7.60
2022-09-16T15:58:00.331Z,16.80
2022-09-16T16:00:26.897Z,8.37
2022-09-16T16:02:56.721Z,7.33
2022-09-16T16:05:30.647Z,9.13
2022-09-16T16:08:04.074Z,10.50
2022-09-16T16:10:40.322Z,9.50
2022-09-16T16:13:06.739Z,7.40
2022-09-16T16:15:34.765Z,9.93
2022-09-16T16:18:04.131Z,9.97
2022-09-16T16:20:34.057Z,6.87
2022-09-16T16:23:01.188Z,8.47
2022-09-16T16:25:28.101Z,8.00
2022-09-16T16:27:54.548Z,7.87
2022-09-16T16:30:21.015Z,9.30
2022-09-16T16:32:47.490Z,7.03
2022-09-16T16:35:14.147Z,9.47
2022-09-16T16:37:46.381Z,11.13
2022-09-16T16:40:14.817Z,4.87
2022-09-16T16:42:43.299Z,6.93
2022-09-16T16:45:12.184Z,7.87
2022-09-16T16:47:39.689Z,6.63
2022-09-16T16:50:06.517Z,5.03
2022-09-16T16:52:32.926Z,7.63
2022-09-16T16:54:59.473Z,9.50
2022-09-16T16:57:26.022Z,11.00
2022-09-16T16:59:52.614Z,8.47
2022-09-16T17:02:19.040Z,11.23
2022-09-16T17:04:45.497Z,9.07
2022-09-16T17:07:25.617Z,8.33
2022-09-16T17:09:52.553Z,6.63
2022-09-16T17:12:18.980Z,12.43
2022-09-16T17:14:45.802Z,8.90
2022-09-16T17:17:12.181Z,5.43
2022-09-16T17:19:38.682Z,5.33
2022-09-16T17:22:05.607Z,8.33
2022-09-16T17:24:33.321Z,7.93
2022-09-16T17:27:00.288Z,6.23
2022-09-16T17:29:27.076Z,4.07
2022-09-16T17:31:55.555Z,5.13
2022-09-16T17:34:22.183Z,2.63
2022-09-16T17:36:48.668Z,2.37
2022-09-16T17:39:18.883Z,6.17
2022-09-16T17:41:47.603Z,8.17
2022-09-16T17:44:14.800Z,7.93
2022-09-16T17:46:42.602Z,4.40
2022-09-16T17:49:14.795Z,4.10
2022-09-16T17:51:41.205Z,4.93
2022-09-16T17:54:08.781Z,8.73
2022-09-16T17:56:35.811Z,8.73
2022-09-16T17:59:02.717Z,7.67
2022-09-16T18:01:30.887Z,9.10
2022-09-16T18:03:58.297Z,6.20
2022-09-16T18:06:30.895Z,5.53
2022-09-16T18:09:01.165Z,7.30
2022-09-16T18:11:27.646Z,4.47
2022-09-16T18:13:56.413Z,5.33
2022-09-16T18:16:23.969Z,7.53
2022-09-16T18:18:52.575Z,3.60
2022-09-16T18:21:19.874Z,7.70
2022-09-16T18:23:49.599Z,4.30
2022-09-16T18:26:16.845Z,8.07
2022-09-16T18:29:09.013Z,8.07
2022-09-16T18:31:35.566Z,6.67
2022-09-16T18:34:02.290Z,4.63
2022-09-16T18:36:30.462Z,3.13
2022-09-16T18:38:58.041Z,7.13
2022-09-16T18:41:35.212Z,2.37
2022-09-16T18:44:04.936Z,3.50
2022-09-16T18:46:33.455Z,7.37
2022-09-16T18:49:00.729Z,6.03
2022-09-16T18:51:31.575Z,7.00
2022-09-16T18:54:00.775Z,7.13
2022-09-16T18:56:29.135Z,6.50
2022-09-16T18:59:20.549Z,5.07
2022-09-16T19:01:48.932Z,4.50
2022-09-16T19:04:17.693Z,6.67
2022-09-16T19:06:46.506Z,4.33
2022-09-16T19:09:15.147Z,7.30
2022-09-16T19:11:41.976Z,5.83
2022-09-16T19:14:09.581Z,3.40
2022-09-16T19:16:36.925Z,6.17
2022-09-16T19:19:05.466Z,8.97
2022-09-16T19:21:32.175Z,6.30
2022-09-16T19:24:04.961Z,5.13
2022-09-16T19:26:37.098Z,5.80
2022-09-16T19:29:06.974Z,6.93
2022-09-16T19:31:35.379Z,8.90
2022-09-16T19:34:01.906Z,5.77
2022-09-16T19:36:30.234Z,7.83
2022-09-16T19:38:57.366Z,5.97
2022-09-16T19:41:26.422Z,7.67
2022-09-16T19:43:58.239Z,5.87
2022-09-16T19:46:25.102Z,10.20
2022-09-16T19:48:52.171Z,10.73
2022-09-16T19:51:22.542Z,7.40
2022-09-16T19:53:50.127Z,4.97
2022-09-16T19:56:21.606Z,5.17
2022-09-16T19:58:48.705Z,7.07
2022-09-16T20:01:25.736Z,10.70
2022-09-16T20:03:53.023Z,7.03
2022-09-16T20:06:25.336Z,4.37
2022-09-16T20:08:54.596Z,5.17
2022-09-16T20:11:23.153Z,9.63
2022-09-16T20:13:50.677Z,8.17
2022-09-16T20:16:18.463Z,7.37
2022-09-16T20:18:45.077Z,7.80
2022-09-16T20:21:13.638Z,5.17
2022-09-16T20:23:40.589Z,4.73
2022-09-16T20:26:08.707Z,6.07
2022-09-16T20:28:43.522Z,8.93
2022-09-16T20:31:11.865Z,11.37
2022-09-16T20:33:38.481Z,8.13
2022-09-16T20:36:06.493Z,10.00
2022-09-16T20:38:34.358Z,5.93
2022-09-16T20:41:07.032Z,7.30
2022-09-16T20:43:34.571Z,5.00
2022-09-16T20:46:05.916Z,6.17
2022-09-16T20:48:32.570Z,4.83
2022-09-16T20:51:10.659Z,5.70
2022-09-16T20:53:38.130Z,7.50
2022-09-16T20:56:07.049Z,4.80
2022-09-16T20:58:36.959Z,6.13
2022-09-16T21:01:08.778Z,4.70
2022-09-16T21:03:35.306Z,6.10
2022-09-16T21:06:22.839Z,6.17
2022-09-16T21:08:52.785Z,8.43
2022-09-16T21:11:19.800Z,11.20
2022-09-16T21:13:51.596Z,9.57
2022-09-16T21:16:18.075Z,8.90
2022-09-16T21:18:44.488Z,9.00
2022-09-16T21:21:19.547Z,5.73
2022-09-16T21:23:49.851Z,7.07
2022-09-16T21:26:18.559Z,11.63
2022-09-16T21:28:45.969Z,12.17
2022-09-16T21:31:14.363Z,8.90
2022-09-16T21:33:42.430Z,12.83
2022-09-16T21:36:11.407Z,11.90
2022-09-16T21:38:38.517Z,6.37
2022-09-16T21:41:07.545Z,11.30
2022-09-16T21:43:38.764Z,17.60
2022-09-16T21:46:06.587Z,8.40
2022-09-16T21:48:33.100Z,8.67
2022-09-16T21:51:05.510Z,9.27
2022-09-16T21:53:32.521Z,12.47
2022-09-16T21:56:02.827Z,10.87
2022-09-16T21:58:29.526Z,14.23
2022-09-16T22:01:11.369Z,16.57
2022-09-16T22:03:42.523Z,14.23
2022-09-16T22:06:12.321Z,20.47
2022-09-16T22:08:39.188Z,16.30
2022-09-16T22:11:08.065Z,22.23
2022-09-16T22:13:35.121Z,15.30
2022-09-16T22:16:02.606Z,11.63
2022-09-16T22:18:31.124Z,15.93
2022-09-16T22:21:15.668Z,18.57
2022-09-16T22:23:42.155Z,18.53
2022-09-16T22:26:14.042Z,15.63
2022-09-16T22:28:41.089Z,15.07
2022-09-16T22:31:10.371Z,11.20
2022-09-16T22:33:38.684Z,8.90
2022-09-16T22:36:07.166Z,14.17
2022-09-16T22:38:33.906Z,15.43
2022-09-16T22:41:10.343Z,15.50
2022-09-16T22:43:38.340Z,15.30
2022-09-16T22:46:05.756Z,18.60
2022-09-16T22:48:32.833Z,18.60
2022-09-16T22:51:00.143Z,16.97
2022-09-16T22:53:28.153Z,21.53
2022-09-16T22:56:03.189Z,17.03
2022-09-16T22:58:30.174Z,18.97
2022-09-16T23:01:04.809Z,21.30
2022-09-16T23:03:31.776Z,15.43
2022-09-16T23:06:00.802Z,20.40
2022-09-16T23:08:28.291Z,22.73
2022-09-16T23:10:56.115Z,19.33
2022-09-16T23:13:23.468Z,20.30
2022-09-16T23:15:53.801Z,24.50
2022-09-16T23:18:22.571Z,23.67
2022-09-16T23:20:59.756Z,22.03
2022-09-16T23:23:27.620Z,19.60
2022-09-16T23:25:54.155Z,26.23
2022-09-16T23:28:20.855Z,20.00
2022-09-16T23:30:47.426Z,20.57
2022-09-16T23:33:14.273Z,18.30
2022-09-16T23:35:50.598Z,17.70
2022-09-16T23:38:17.333Z,20.10
2022-09-16T23:40:44.105Z,18.60
2022-09-16T23:43:10.771Z,13.47
2022-09-16T23:45:37.592Z,15.43
2022-09-16T23:48:04.742Z,21.43
2022-09-16T23:50:31.542Z,20.60
2022-09-16T23:52:58.995Z,17.63
2022-09-16T23:55:25.818Z,13.07
2022-09-16T23:57:52.997Z,17.13
